Time;durP1;ratioP1;P1;durP2;ratioP2;P2;SDS_P1;SDS_P2;PMS_P1;PMS_P2;Temp;Humidity;BMP_temperature;BMP_pressure;BME280_temperature;BME280_humidity;BME280_pressure;Samples;Min_cycle;Max_cycle;Signal;HPM_P1;HPM_P2
2023/09/15 00:01:28;;;;;;;7.95;3.28;;;14.10;99.30;;;;;;5015358;28;20114;-77
2023/09/15 00:03:54;;;;;;;11.27;3.05;;;14.10;99.40;;;;;;5015364;28;20080;-77
2023/09/15 00:06:20;;;;;;;7.38;3.25;;;14.10;99.40;;;;;;5015587;28;20056;-77
2023/09/15 00:08:45;;;;;;;9.13;3.03;;;14.10;99.50;;;;;;5015450;28;20045;-77
2023/09/15 00:11:15;;;;;;;10.13;3.15;;;14.00;99.60;;;;;;5015284;28;20413;-77
2023/09/15 00:13:41;;;;;;;8.95;2.90;;;14.00;99.80;;;;;;4999000;28;20029;-77
2023/09/15 00:16:07;;;;;;;8.88;2.72;;;14.00;99.90;;;;;;5016358;28;20033;-77
2023/09/15 00:18:33;;;;;;;9.88;3.28;;;14.00;99.90;;;;;;5015307;28;20494;-77
2023/09/15 00:20:59;;;;;;;6.97;2.58;;;13.90;99.90;;;;;;4999189;28;20061;-77
2023/09/15 00:23:24;;;;;;;8.68;2.72;;;13.90;99.90;;;;;;5015345;28;20490;-77
2023/09/15 00:25:54;;;;;;;8.32;2.83;;;13.90;99.90;;;;;;5015167;28;20045;-77
2023/09/15 00:28:20;;;;;;;8.32;2.75;;;13.90;99.90;;;;;;5015312;28;20041;-77
2023/09/15 00:30:49;;;;;;;9.65;2.70;;;13.80;99.90;;;;;;5015382;28;20037;-77
2023/09/15 00:33:16;;;;;;;9.88;2.70;;;13.80;99.90;;;;;;4998627;28;20040;-77
2023/09/15 00:35:41;;;;;;;8.40;2.85;;;13.80;99.90;;;;;;4998797;28;20176;-77
2023/09/15 00:38:07;;;;;;;9.68;2.60;;;13.80;99.90;;;;;;5015279;28;20137;-77
2023/09/15 00:40:34;;;;;;;9.10;2.90;;;13.70;99.90;;;;;;5015478;28;20111;-77
2023/09/15 00:43:00;;;;;;;5.50;2.20;;;13.70;99.90;;;;;;5014966;28;20433;-77
2023/09/15 00:45:25;;;;;;;6.07;2.65;;;13.70;99.90;;;;;;4998733;28;20038;-77
2023/09/15 00:47:55;;;;;;;7.85;2.65;;;13.70;99.90;;;;;;5014940;28;20041;-77
2023/09/15 00:50:25;;;;;;;9.02;2.90;;;13.70;99.90;;;;;;5015266;28;20490;-77
2023/09/15 00:52:55;;;;;;;8.32;2.90;;;13.60;99.90;;;;;;5014850;28;20038;-76
2023/09/15 00:55:21;;;;;;;9.32;3.08;;;13.70;99.90;;;;;;4998544;28;20120;-77
2023/09/15 00:57:51;;;;;;;11.00;2.78;;;13.60;99.90;;;;;;5014879;28;20104;-77
2023/09/15 01:00:17;;;;;;;6.93;2.60;;;13.60;99.90;;;;;;4998557;28;20484;-77
2023/09/15 01:02:44;;;;;;;7.38;2.47;;;13.60;99.90;;;;;;5016421;28;20107;-77
2023/09/15 01:05:16;;;;;;;7.95;2.78;;;13.60;99.90;;;;;;5002114;28;20037;-77
2023/09/15 01:07:45;;;;;;;7.43;2.40;;;13.60;99.90;;;;;;5018430;28;20544;-77
2023/09/15 01:10:14;;;;;;;6.88;2.60;;;13.50;99.90;;;;;;5018334;28;20314;-77
2023/09/15 01:12:41;;;;;;;5.80;2.25;;;13.50;99.90;;;;;;5018249;28;20037;-77
2023/09/15 01:15:07;;;;;;;9.32;3.00;;;13.50;99.90;;;;;;5018470;28;20456;-77
2023/09/15 01:17:57;;;;;;;8.52;2.63;;;13.50;99.90;;;;;;5018170;28;20033;-77
2023/09/15 01:20:40;;;;;;;8.43;2.53;;;13.40;99.90;;;;;;5018245;28;20434;-77
2023/09/15 01:23:14;;;;;;;7.28;2.00;;;13.40;99.90;;;;;;5018071;28;20049;-77
2023/09/15 01:25:59;;;;;;;10.27;2.80;;;13.40;99.90;;;;;;5018111;28;20041;-77
2023/09/15 01:28:55;;;;;;;5.10;2.22;;;13.40;99.90;;;;;;5018001;28;20049;-77
2023/09/15 01:31:22;;;;;;;8.23;2.30;;;13.40;99.90;;;;;;5017773;28;20033;-77
2023/09/15 01:33:48;;;;;;;6.78;2.58;;;13.30;99.90;;;;;;5018177;28;20486;-77
2023/09/15 01:36:14;;;;;;;5.38;2.50;;;13.30;99.90;;;;;;5017867;28;20056;-77
2023/09/15 01:38:39;;;;;;;7.22;2.47;;;13.30;99.90;;;;;;5018012;28;20046;-77
2023/09/15 01:41:05;;;;;;;7.35;2.70;;;13.30;99.90;;;;;;5017789;28;20046;-77
2023/09/15 01:43:30;;;;;;;7.90;2.83;;;13.30;99.90;;;;;;5017670;28;20033;-77
2023/09/15 01:45:56;;;;;;;6.70;2.30;;;13.30;99.90;;;;;;5017732;28;20037;-77
2023/09/15 01:48:23;;;;;;;7.15;2.63;;;13.20;99.90;;;;;;5017572;28;20045;-77
2023/09/15 01:50:50;;;;;;;9.57;2.33;;;13.20;99.90;;;;;;5017600;28;20034;-77
2023/09/15 01:53:16;;;;;;;6.95;2.63;;;13.20;99.90;;;;;;5017769;28;20063;-77
2023/09/15 01:55:43;;;;;;;7.97;2.75;;;13.20;99.90;;;;;;5017521;28;20559;-77
2023/09/15 01:58:09;;;;;;;7.40;2.70;;;13.20;99.90;;;;;;5017688;28;20520;-77
2023/09/15 02:00:35;;;;;;;6.88;2.65;;;13.20;99.90;;;;;;5001068;28;20042;-77
2023/09/15 02:03:02;;;;;;;7.00;2.90;;;13.20;99.90;;;;;;5001220;28;20084;-77
2023/09/15 02:05:27;;;;;;;9.07;3.00;;;13.10;99.90;;;;;;5017326;28;20567;-77
2023/09/15 02:07:53;;;;;;;7.47;2.42;;;13.10;99.90;;;;;;5000843;28;20045;-77
2023/09/15 02:10:19;;;;;;;7.03;2.80;;;13.10;99.90;;;;;;5001274;28;20128;-77
2023/09/15 02:12:44;;;;;;;9.50;2.50;;;13.10;99.90;;;;;;5000786;28;20405;-77
2023/09/15 02:15:11;;;;;;;8.75;2.30;;;13.10;99.90;;;;;;4999831;28;20045;-77
2023/09/15 02:17:38;;;;;;;6.60;2.53;;;13.10;99.90;;;;;;5017085;28;20080;-77
2023/09/15 02:20:14;;;;;;;6.20;2.50;;;13.10;99.90;;;;;;5017286;28;20045;-77
2023/09/15 02:22:43;;;;;;;10.82;3.00;;;13.10;99.90;;;;;;5000660;28;20037;-77
2023/09/15 02:25:09;;;;;;;7.47;2.30;;;13.10;99.90;;;;;;5016969;28;20410;-77
2023/09/15 02:27:38;;;;;;;10.00;2.85;;;13.10;99.90;;;;;;5017119;28;20049;-77
2023/09/15 02:30:08;;;;;;;6.85;2.50;;;13.00;99.90;;;;;;5000499;28;20236;-77
2023/09/15 02:32:34;;;;;;;8.23;2.38;;;13.00;99.90;;;;;;5016864;28;20037;-77
2023/09/15 02:35:00;;;;;;;7.97;2.42;;;13.00;99.90;;;;;;5000414;28;20533;-77
2023/09/15 02:37:25;;;;;;;11.63;2.97;;;13.00;99.90;;;;;;5000384;28;20069;-77
2023/09/15 02:39:51;;;;;;;8.40;2.55;;;12.90;99.90;;;;;;5016921;28;20498;-77
2023/09/15 02:42:16;;;;;;;7.63;2.58;;;12.90;99.90;;;;;;5000258;28;20409;-77
2023/09/15 02:44:43;;;;;;;6.13;2.28;;;13.00;99.90;;;;;;5016840;28;20060;-77
2023/09/15 02:47:08;;;;;;;7.57;2.53;;;12.90;99.90;;;;;;5016494;28;20041;-77
2023/09/15 02:49:34;;;;;;;8.88;2.65;;;12.90;99.90;;;;;;5016416;28;20041;-77
2023/09/15 02:52:01;;;;;;;10.27;3.45;;;12.90;99.90;;;;;;5000107;28;20087;-77
2023/09/15 02:54:27;;;;;;;7.47;2.10;;;12.90;99.90;;;;;;5016484;28;20124;-77
2023/09/15 02:56:53;;;;;;;6.55;2.40;;;12.90;99.90;;;;;;5016323;28;20521;-77
2023/09/15 02:59:19;;;;;;;4.78;2.28;;;12.90;99.90;;;;;;5016317;28;20041;-77
2023/09/15 03:01:44;;;;;;;10.65;2.67;;;12.80;99.90;;;;;;5016249;28;20080;-77
2023/09/15 03:04:10;;;;;;;9.52;2.55;;;12.80;99.90;;;;;;4999967;28;20037;-77
2023/09/15 03:06:35;;;;;;;11.75;2.75;;;12.80;99.90;;;;;;5016233;28;20042;-77
2023/09/15 03:09:01;;;;;;;4.22;2.20;;;12.80;99.90;;;;;;4999896;28;20107;-77
2023/09/15 03:11:26;;;;;;;6.15;2.65;;;12.70;99.90;;;;;;5016318;28;20124;-77
2023/09/15 03:13:52;;;;;;;8.20;2.70;;;12.70;99.90;;;;;;4999746;28;20415;-77
2023/09/15 03:16:18;;;;;;;6.75;2.63;;;12.70;99.90;;;;;;5016064;28;20556;-77
2023/09/15 03:18:46;;;;;;;9.95;2.47;;;12.70;99.90;;;;;;5016328;28;20068;-77
2023/09/15 03:21:12;;;;;;;6.63;2.65;;;12.70;99.90;;;;;;5015864;28;20519;-77
2023/09/15 03:23:38;;;;;;;10.10;2.50;;;12.70;99.90;;;;;;5015878;28;20045;-77
2023/09/15 03:26:04;;;;;;;7.15;2.83;;;12.70;99.90;;;;;;4999281;28;20140;-77
2023/09/15 03:28:35;;;;;;;6.88;2.95;;;12.70;99.90;;;;;;4999448;28;20038;-77
2023/09/15 03:31:03;;;;;;;6.40;2.38;;;12.70;99.90;;;;;;5015819;28;20406;-77
2023/09/15 03:33:30;;;;;;;9.43;4.22;;;12.70;99.90;;;;;;5015555;28;20477;-77
2023/09/15 03:35:56;;;;;;;9.32;2.90;;;12.70;99.90;;;;;;5015984;28;20037;-77
2023/09/15 03:38:22;;;;;;;5.90;2.50;;;12.60;99.90;;;;;;5015913;28;20098;-77
2023/09/15 03:40:48;;;;;;;8.93;2.92;;;12.60;99.90;;;;;;5015610;28;20557;-77
2023/09/15 03:43:14;;;;;;;7.50;2.50;;;12.60;99.90;;;;;;5015823;28;20038;-77
2023/09/15 03:45:43;;;;;;;7.68;2.40;;;12.60;99.90;;;;;;5015892;28;20175;-77
2023/09/15 03:48:09;;;;;;;7.63;2.35;;;12.60;99.90;;;;;;5015542;28;20046;-77
2023/09/15 03:50:35;;;;;;;6.22;2.17;;;12.60;99.90;;;;;;5015550;28;20128;-77
2023/09/15 03:53:00;;;;;;;9.35;2.67;;;12.60;99.90;;;;;;4999022;28;20124;-77
2023/09/15 03:55:26;;;;;;;5.45;2.33;;;12.50;99.90;;;;;;5015795;28;20041;-77
2023/09/15 03:57:52;;;;;;;7.93;2.15;;;12.50;99.90;;;;;;5015471;28;20460;-77
2023/09/15 04:00:19;;;;;;;8.00;2.20;;;12.50;99.90;;;;;;4999116;28;20033;-77
2023/09/15 04:02:45;;;;;;;7.65;2.40;;;12.50;99.90;;;;;;5015658;28;20041;-77
2023/09/15 04:05:10;;;;;;;5.20;2.17;;;12.50;99.90;;;;;;5015384;28;20547;-77
2023/09/15 04:07:37;;;;;;;8.02;2.55;;;12.50;99.90;;;;;;4999021;28;20042;-77
2023/09/15 04:10:07;;;;;;;6.97;2.55;;;12.40;99.90;;;;;;5015303;28;20115;-77
2023/09/15 04:12:34;;;;;;;9.82;2.80;;;12.40;99.90;;;;;;5015300;28;20041;-77
2023/09/15 04:14:59;;;;;;;8.95;2.55;;;12.40;99.90;;;;;;5015318;28;20087;-77
2023/09/15 04:17:25;;;;;;;6.57;2.50;;;12.40;99.90;;;;;;5015317;28;20034;-77
2023/09/15 04:19:51;;;;;;;4.95;2.30;;;12.30;99.90;;;;;;5015204;28;20125;-77
2023/09/15 04:22:17;;;;;;;7.82;2.47;;;12.30;99.90;;;;;;4998796;28;20076;-77
2023/09/15 04:24:42;;;;;;;5.45;2.25;;;12.30;99.90;;;;;;5015497;28;20037;-77
2023/09/15 04:27:08;;;;;;;9.75;2.92;;;12.20;99.90;;;;;;5015217;28;20049;-77
2023/09/15 04:29:38;;;;;;;7.18;2.53;;;12.20;99.90;;;;;;5015142;28;20133;-77
2023/09/15 04:32:04;;;;;;;8.27;2.50;;;12.20;99.90;;;;;;5015147;28;20433;-77
2023/09/15 04:34:30;;;;;;;8.23;2.70;;;12.20;99.90;;;;;;5015082;28;20034;-77
2023/09/15 04:36:55;;;;;;;7.75;2.40;;;12.20;99.90;;;;;;5015249;28;20124;-77
2023/09/15 04:39:21;;;;;;;5.78;2.38;;;12.20;99.90;;;;;;5019452;28;20037;-77
2023/09/15 04:41:46;;;;;;;7.60;2.25;;;12.10;99.90;;;;;;5002456;28;20506;-77
2023/09/15 04:44:12;;;;;;;7.05;2.38;;;12.20;99.90;;;;;;5018815;28;20410;-77
2023/09/15 04:46:37;;;;;;;6.95;2.63;;;12.10;99.90;;;;;;5018753;28;20091;-77
2023/09/15 04:49:04;;;;;;;5.95;2.42;;;12.10;99.90;;;;;;5018675;28;20044;-77
2023/09/15 04:51:29;;;;;;;7.10;2.10;;;12.10;99.90;;;;;;5002515;28;20037;-77
2023/09/15 04:53:55;;;;;;;10.05;3.00;;;12.10;99.90;;;;;;5018637;28;20405;-77
2023/09/15 04:56:21;;;;;;;6.15;2.53;;;12.10;99.90;;;;;;5018667;28;20096;-77
2023/09/15 04:58:48;;;;;;;7.35;3.08;;;12.10;99.90;;;;;;5018769;28;20052;-77
2023/09/15 05:01:17;;;;;;;9.77;3.10;;;12.10;99.90;;;;;;5018322;28;20510;-76
2023/09/15 05:03:44;;;;;;;9.18;2.97;;;12.10;99.90;;;;;;5002092;28;20116;-76
2023/09/15 05:06:09;;;;;;;6.25;2.40;;;12.10;99.90;;;;;;5018343;28;20045;-76
2023/09/15 05:08:35;;;;;;;6.35;2.33;;;12.00;99.90;;;;;;5018314;28;20038;-76
2023/09/15 05:11:01;;;;;;;8.30;2.78;;;12.00;99.90;;;;;;5001912;28;20041;-76
2023/09/15 05:13:26;;;;;;;9.98;3.08;;;12.00;99.90;;;;;;5018165;28;20029;-76
2023/09/15 05:15:52;;;;;;;7.32;2.83;;;12.00;99.90;;;;;;5018448;28;20037;-77
2023/09/15 05:18:17;;;;;;;7.35;2.42;;;12.00;99.90;;;;;;5018207;28;20506;-77
2023/09/15 05:20:44;;;;;;;6.50;2.65;;;12.00;99.90;;;;;;5018192;28;20041;-77
2023/09/15 05:23:09;;;;;;;7.45;2.65;;;12.00;99.90;;;;;;5018027;28;20042;-77
2023/09/15 05:25:35;;;;;;;6.82;2.58;;;12.00;99.90;;;;;;5018041;28;20045;-77
2023/09/15 05:28:01;;;;;;;8.43;2.95;;;12.00;99.90;;;;;;5018232;28;20053;-77
2023/09/15 05:30:28;;;;;;;7.10;2.47;;;12.00;99.90;;;;;;5017877;28;20033;-77
2023/09/15 05:32:55;;;;;;;8.50;3.03;;;12.00;99.90;;;;;;5001699;28;20115;-77
2023/09/15 05:35:21;;;;;;;10.77;3.10;;;12.00;99.90;;;;;;5017939;28;20049;-77
2023/09/15 05:37:47;;;;;;;6.22;2.55;;;12.00;99.90;;;;;;5017879;28;20084;-77
2023/09/15 05:40:13;;;;;;;9.02;3.22;;;12.00;99.90;;;;;;5017853;28;20042;-77
2023/09/15 05:42:38;;;;;;;5.00;2.15;;;12.00;99.90;;;;;;5018050;28;20501;-76
2023/09/15 05:45:05;;;;;;;6.18;2.95;;;12.00;99.90;;;;;;5001950;28;20052;-76
2023/09/15 05:47:31;;;;;;;11.75;3.25;;;12.00;99.90;;;;;;5017978;28;20116;-76
2023/09/15 05:49:59;;;;;;;8.88;3.15;;;12.10;99.90;;;;;;5017592;28;20125;-76
2023/09/15 05:52:25;;;;;;;6.72;3.05;;;12.10;99.90;;;;;;5018209;28;20445;-76
2023/09/15 05:54:50;;;;;;;8.43;3.10;;;12.10;99.90;;;;;;5001512;28;20041;-76
2023/09/15 05:57:16;;;;;;;6.78;2.97;;;12.10;99.90;;;;;;5017937;28;20042;-75
2023/09/15 05:59:42;;;;;;;9.05;3.33;;;12.20;99.90;;;;;;5017936;28;20046;-76
2023/09/15 06:02:07;;;;;;;9.43;3.20;;;12.20;99.90;;;;;;5017716;28;20041;-76
2023/09/15 06:04:33;;;;;;;9.27;3.42;;;12.20;99.90;;;;;;5001351;28;20042;-76
2023/09/15 06:06:58;;;;;;;6.15;2.60;;;12.20;99.90;;;;;;5018200;28;20156;-76
2023/09/15 06:09:24;;;;;;;5.88;2.75;;;12.30;99.90;;;;;;5017399;28;20103;-76
2023/09/15 06:11:49;;;;;;;7.82;2.85;;;12.30;99.90;;;;;;5017190;28;20041;-76
2023/09/15 06:14:15;;;;;;;10.18;3.10;;;12.30;99.90;;;;;;5017218;28;20120;-76
2023/09/15 06:16:41;;;;;;;9.15;2.72;;;12.40;99.90;;;;;;5017206;28;20092;-76
2023/09/15 06:19:06;;;;;;;8.70;3.13;;;12.40;99.90;;;;;;5000796;28;20103;-76
2023/09/15 06:21:32;;;;;;;7.13;3.20;;;12.40;99.90;;;;;;5016974;28;20043;-76
2023/09/15 06:23:58;;;;;;;6.65;2.95;;;12.50;99.90;;;;;;5001364;28;20111;-76
2023/09/15 06:26:24;;;;;;;8.70;3.15;;;12.60;99.90;;;;;;5001022;28;20077;-76
2023/09/15 06:28:49;;;;;;;7.55;3.05;;;12.60;99.90;;;;;;5017491;28;20038;-76
2023/09/15 06:31:16;;;;;;;6.88;3.00;;;12.60;99.90;;;;;;5017486;28;20048;-76
2023/09/15 06:33:42;;;;;;;7.47;3.22;;;12.70;99.90;;;;;;5017347;28;20041;-76
2023/09/15 06:36:07;;;;;;;8.68;2.90;;;12.70;99.90;;;;;;5016985;28;20034;-76
2023/09/15 06:38:33;;;;;;;9.35;3.30;;;12.80;99.90;;;;;;5000597;28;20045;-77
2023/09/15 06:40:59;;;;;;;6.80;3.08;;;12.80;99.90;;;;;;5016641;28;20103;-77
2023/09/15 06:43:24;;;;;;;7.20;2.80;;;12.90;99.90;;;;;;5016546;28;20508;-77
2023/09/15 06:45:50;;;;;;;8.60;2.80;;;12.90;99.90;;;;;;5016872;28;20064;-77
2023/09/15 06:48:16;;;;;;;6.25;2.67;;;12.90;99.90;;;;;;5016944;28;20405;-76
2023/09/15 06:50:41;;;;;;;7.60;2.70;;;12.90;99.90;;;;;;5017298;28;20073;-76
2023/09/15 06:53:07;;;;;;;10.20;3.13;;;13.00;99.90;;;;;;5000429;28;20486;-74
2023/09/15 06:55:33;;;;;;;5.95;2.90;;;13.10;99.90;;;;;;5016436;28;20029;-74
2023/09/15 06:57:58;;;;;;;10.45;3.50;;;13.10;99.90;;;;;;5000399;28;20138;-74
2023/09/15 07:00:24;;;;;;;10.73;3.00;;;13.20;99.90;;;;;;4999402;28;20494;-74
2023/09/15 07:02:50;;;;;;;24.70;4.13;;;13.20;99.90;;;;;;5016186;28;20041;-74
2023/09/15 07:05:15;;;;;;;7.72;3.40;;;13.30;99.90;;;;;;5016482;28;20038;-74
2023/09/15 07:07:41;;;;;;;9.27;3.35;;;13.30;99.90;;;;;;5016274;28;20076;-73
2023/09/15 07:10:07;;;;;;;6.93;2.97;;;13.40;99.90;;;;;;5016086;28;20041;-73
2023/09/15 07:12:33;;;;;;;10.85;3.58;;;13.40;99.90;;;;;;5016351;28;20108;-73
2023/09/15 07:15:02;;;;;;;11.15;3.40;;;13.50;99.90;;;;;;5016099;28;20506;-73
2023/09/15 07:17:28;;;;;;;11.27;3.30;;;13.60;99.90;;;;;;5016072;28;20391;-77
2023/09/15 07:19:53;;;;;;;7.68;3.58;;;13.60;99.90;;;;;;4999652;28;20041;-76
2023/09/15 07:22:19;;;;;;;7.22;2.90;;;13.60;99.90;;;;;;5015886;28;20037;-77
2023/09/15 07:24:44;;;;;;;8.02;2.97;;;13.70;99.90;;;;;;5015954;28;20056;-77
2023/09/15 07:27:10;;;;;;;8.38;2.97;;;13.80;99.90;;;;;;5016143;28;20132;-78
2023/09/15 07:29:36;;;;;;;8.65;3.00;;;13.80;99.90;;;;;;5015787;28;20120;-78
2023/09/15 07:32:03;;;;;;;7.88;2.75;;;13.90;99.90;;;;;;4999651;28;20445;-78
2023/09/15 07:34:29;;;;;;;6.13;3.00;;;13.90;99.90;;;;;;5015779;28;20091;-78
2023/09/15 07:36:54;;;;;;;8.25;3.30;;;14.00;99.90;;;;;;5016014;28;20041;-78
2023/09/15 07:39:20;;;;;;;5.85;2.80;;;14.10;99.90;;;;;;5015724;28;20038;-78
2023/09/15 07:41:45;;;;;;;11.27;3.35;;;14.20;99.90;;;;;;5015614;28;20038;-77
2023/09/15 07:44:13;;;;;;;5.10;2.50;;;14.30;99.90;;;;;;4999595;28;20124;-77
2023/09/15 07:46:39;;;;;;;8.50;3.47;;;14.40;99.90;;;;;;4999335;28;20052;-77
2023/09/15 07:49:05;;;;;;;9.27;3.13;;;14.50;99.90;;;;;;5015518;28;20042;-72
2023/09/15 07:51:31;;;;;;;8.98;3.50;;;14.60;99.90;;;;;;5015738;28;20037;-72
2023/09/15 07:53:57;;;;;;;7.72;3.28;;;14.70;99.90;;;;;;5015492;28;20040;-72
2023/09/15 07:56:23;;;;;;;9.02;2.97;;;14.80;99.90;;;;;;4999155;28;20042;-73
2023/09/15 07:58:49;;;;;;;5.80;2.50;;;15.00;99.90;;;;;;5015473;28;20071;-73
2023/09/15 08:01:14;;;;;;;6.72;2.78;;;15.10;99.90;;;;;;4999004;28;20193;-72
2023/09/15 08:03:40;;;;;;;8.48;2.80;;;15.20;99.90;;;;;;5015381;28;20052;-72
2023/09/15 08:06:08;;;;;;;8.23;3.20;;;15.30;99.90;;;;;;5015436;28;20048;-72
2023/09/15 08:08:34;;;;;;;5.85;2.70;;;15.50;99.90;;;;;;5015420;28;20053;-77
2023/09/15 08:11:00;;;;;;;6.05;2.50;;;15.70;99.90;;;;;;5015335;28;20033;-73
2023/09/15 08:13:26;;;;;;;10.05;2.90;;;15.90;99.90;;;;;;5017969;28;20033;-73
2023/09/15 08:15:52;;;;;;;9.95;3.00;;;16.10;99.90;;;;;;5020991;28;20124;-72
2023/09/15 08:18:18;;;;;;;10.40;2.90;;;16.30;99.90;;;;;;5019536;28;20487;-72
2023/09/15 08:20:44;;;;;;;9.57;2.75;;;16.50;99.90;;;;;;5019225;28;20124;-72
2023/09/15 08:23:11;;;;;;;8.63;2.83;;;16.80;99.90;;;;;;5019446;28;20088;-72
2023/09/15 08:25:36;;;;;;;7.57;3.25;;;17.00;99.90;;;;;;5019191;28;20041;-72
2023/09/15 08:28:03;;;;;;;7.07;2.67;;;17.30;99.90;;;;;;5019099;28;20086;-72
2023/09/15 08:30:29;;;;;;;5.97;2.47;;;17.50;99.90;;;;;;5019165;28;20409;-72
2023/09/15 08:32:55;;;;;;;7.40;2.22;;;17.70;99.90;;;;;;5019166;28;20042;-72
2023/09/15 08:35:21;;;;;;;8.77;2.17;;;18.00;99.90;;;;;;5019028;28;20414;-72
2023/09/15 08:37:48;;;;;;;8.77;2.05;;;18.20;99.90;;;;;;5018972;28;20045;-72
2023/09/15 08:40:14;;;;;;;6.35;2.13;;;18.50;99.90;;;;;;5019193;28;20482;-72
2023/09/15 08:42:40;;;;;;;7.93;2.05;;;18.70;99.40;;;;;;5018870;28;20572;-72
2023/09/15 08:45:07;;;;;;;5.40;2.10;;;19.00;99.10;;;;;;5018885;28;20081;-72
2023/09/15 08:47:37;;;;;;;6.90;2.47;;;19.20;98.10;;;;;;5002691;28;20041;-73
2023/09/15 08:50:03;;;;;;;6.82;2.10;;;19.50;97.50;;;;;;5018708;28;20041;-72
2023/09/15 08:52:30;;;;;;;4.40;1.90;;;19.70;97.10;;;;;;5018602;28;20478;-73
2023/09/15 08:54:56;;;;;;;7.28;2.38;;;19.90;96.80;;;;;;5018956;28;20063;-73
2023/09/15 08:57:22;;;;;;;6.15;2.08;;;20.10;95.90;;;;;;5018886;28;20494;-73
2023/09/15 08:59:50;;;;;;;6.97;2.67;;;20.40;94.90;;;;;;5018546;28;20136;-73
2023/09/15 09:02:15;;;;;;;8.10;2.38;;;20.60;93.90;;;;;;5018469;28;20053;-73
2023/09/15 09:04:41;;;;;;;7.07;2.28;;;20.80;93.20;;;;;;5018540;28;20045;-73
2023/09/15 09:07:07;;;;;;;7.72;2.25;;;21.00;92.20;;;;;;5018423;28;20128;-73
2023/09/15 09:09:34;;;;;;;5.93;1.95;;;21.20;92.10;;;;;;5018312;28;20129;-73
2023/09/15 09:11:59;;;;;;;6.90;2.10;;;21.30;90.90;;;;;;5018272;28;20109;-73
2023/09/15 09:14:25;;;;;;;7.10;2.10;;;21.60;90.50;;;;;;5018324;28;20171;-73
2023/09/15 09:16:52;;;;;;;6.68;2.22;;;21.80;89.80;;;;;;5018237;28;20037;-73
2023/09/15 09:19:18;;;;;;;8.38;2.50;;;22.10;88.00;;;;;;5018191;28;20041;-73
2023/09/15 09:21:44;;;;;;;6.35;2.03;;;22.20;86.00;;;;;;5018375;28;20110;-73
2023/09/15 09:24:10;;;;;;;5.93;1.80;;;22.50;84.70;;;;;;5017942;28;20038;-73
2023/09/15 09:26:37;;;;;;;5.53;1.90;;;22.70;84.20;;;;;;5001812;28;20076;-73
2023/09/15 09:29:03;;;;;;;7.40;2.13;;;23.00;83.90;;;;;;5018142;28;20121;-73
2023/09/15 09:31:29;;;;;;;8.60;2.25;;;23.20;81.70;;;;;;5017750;28;20041;-73
2023/09/15 09:33:57;;;;;;;8.65;2.17;;;23.40;80.00;;;;;;5018035;28;20033;-73
2023/09/15 09:36:23;;;;;;;6.15;2.05;;;23.60;78.90;;;;;;5017984;28;20536;-73
2023/09/15 09:38:50;;;;;;;6.53;1.88;;;23.80;77.10;;;;;;5017868;28;20037;-73
2023/09/15 09:41:18;;;;;;;6.07;1.98;;;24.00;76.80;;;;;;5017763;28;20041;-73
2023/09/15 09:43:49;;;;;;;4.95;2.05;;;24.00;73.20;;;;;;5001413;28;20045;-73
2023/09/15 09:46:21;;;;;;;7.53;2.25;;;24.10;72.90;;;;;;5018003;28;20099;-73
2023/09/15 09:48:48;;;;;;;6.55;2.38;;;24.10;71.20;;;;;;5017534;28;20049;-73
2023/09/15 09:51:14;;;;;;;7.15;2.00;;;24.30;71.90;;;;;;5017546;28;20041;-73
2023/09/15 09:53:40;;;;;;;6.78;2.20;;;24.40;71.00;;;;;;5017523;28;20029;-73
2023/09/15 09:56:06;;;;;;;5.40;1.80;;;24.50;69.60;;;;;;5017576;28;20128;-73
2023/09/15 09:58:32;;;;;;;7.68;2.28;;;24.60;70.30;;;;;;5017528;28;20067;-73
2023/09/15 10:00:59;;;;;;;7.43;2.20;;;24.70;68.70;;;;;;5017463;28;20049;-73
2023/09/15 10:03:24;;;;;;;5.30;1.88;;;24.70;67.60;;;;;;5017433;28;20501;-73
2023/09/15 10:05:52;;;;;;;5.82;1.90;;;24.80;68.00;;;;;;5017579;28;20087;-73
2023/09/15 10:08:18;;;;;;;5.47;2.08;;;24.90;67.40;;;;;;5017235;28;20095;-73
2023/09/15 10:10:44;;;;;;;5.65;1.60;;;25.00;67.50;;;;;;5017341;28;20033;-73
2023/09/15 10:13:11;;;;;;;4.82;1.80;;;25.10;66.80;;;;;;5000810;28;20087;-73
2023/09/15 10:15:39;;;;;;;7.85;1.80;;;25.30;66.40;;;;;;5017380;28;20124;-73
2023/09/15 10:18:07;;;;;;;6.10;2.13;;;25.50;66.30;;;;;;5017184;28;20076;-73
2023/09/15 10:20:35;;;;;;;5.85;1.92;;;25.60;66.40;;;;;;5017298;28;20029;-73
2023/09/15 10:23:01;;;;;;;7.43;1.77;;;25.70;65.30;;;;;;5017260;28;20488;-72
2023/09/15 10:25:27;;;;;;;5.10;1.80;;;25.80;65.40;;;;;;5016972;28;20133;-72
2023/09/15 10:27:54;;;;;;;5.38;1.83;;;25.80;64.70;;;;;;5016955;28;20049;-72
2023/09/15 10:30:20;;;;;;;4.32;1.67;;;25.90;64.90;;;;;;5016830;28;20041;-75
2023/09/15 10:32:46;;;;;;;7.97;2.00;;;26.00;65.60;;;;;;5016678;28;20033;-72
2023/09/15 10:35:12;;;;;;;4.90;1.98;;;26.10;64.80;;;;;;5015988;28;20116;-72
2023/09/15 10:37:42;;;;;;;5.38;2.10;;;26.20;64.40;;;;;;5017029;28;20041;-72
2023/09/15 10:40:08;;;;;;;4.18;1.75;;;26.30;62.90;;;;;;5016703;28;20521;-72
2023/09/15 10:42:35;;;;;;;5.43;2.15;;;26.40;63.20;;;;;;5016764;28;20037;-72
2023/09/15 10:45:11;;;;;;;6.43;1.88;;;26.40;61.10;;;;;;5016626;28;20037;-72
2023/09/15 10:47:36;;;;;;;8.88;1.95;;;26.50;61.30;;;;;;5016479;28;20124;-72
2023/09/15 10:50:04;;;;;;;8.07;2.50;;;26.50;61.50;;;;;;5016564;28;20046;-72
2023/09/15 10:52:35;;;;;;;4.45;2.10;;;26.60;62.50;;;;;;5016411;28;20049;-72
2023/09/15 10:55:03;;;;;;;4.32;1.92;;;26.80;61.90;;;;;;5016665;28;20092;-72
2023/09/15 10:57:29;;;;;;;4.70;2.00;;;26.90;61.90;;;;;;5016670;28;20055;-72
2023/09/15 10:59:56;;;;;;;7.35;2.80;;;27.00;60.60;;;;;;5016311;28;20037;-72
2023/09/15 11:02:22;;;;;;;7.75;2.30;;;27.00;60.60;;;;;;5016262;28;20045;-72
2023/09/15 11:04:48;;;;;;;6.80;2.17;;;27.00;59.80;;;;;;5016353;28;20047;-73
2023/09/15 11:07:17;;;;;;;6.68;2.10;;;27.00;59.70;;;;;;5016518;28;20073;-73
2023/09/15 11:09:43;;;;;;;5.70;2.22;;;26.90;60.20;;;;;;5016208;28;20083;-72
2023/09/15 11:12:12;;;;;;;5.05;2.05;;;26.80;59.20;;;;;;5016364;28;20041;-72
2023/09/15 11:14:38;;;;;;;6.45;2.20;;;26.80;59.80;;;;;;5016038;28;20458;-72
2023/09/15 11:17:04;;;;;;;5.78;1.70;;;26.90;60.40;;;;;;5016099;28;20075;-73
2023/09/15 11:19:32;;;;;;;6.30;2.08;;;27.10;59.60;;;;;;5016084;28;20201;-73
2023/09/15 11:22:03;;;;;;;4.78;1.92;;;27.20;60.20;;;;;;5016265;28;20037;-74
2023/09/15 11:24:28;;;;;;;5.30;1.73;;;27.20;58.30;;;;;;4999746;28;20041;-74
2023/09/15 11:26:54;;;;;;;5.20;1.67;;;27.20;59.90;;;;;;5015968;28;20033;-74
2023/09/15 11:29:30;;;;;;;6.32;2.00;;;27.30;59.20;;;;;;5015883;28;20049;-74
2023/09/15 11:31:57;;;;;;;5.60;2.10;;;27.30;59.00;;;;;;5015692;28;20052;-74
2023/09/15 11:34:22;;;;;;;7.32;2.13;;;27.20;57.80;;;;;;5015812;28;20409;-74
2023/09/15 11:36:50;;;;;;;5.43;1.73;;;27.20;58.70;;;;;;5016111;28;20044;-74
2023/09/15 11:39:16;;;;;;;6.55;2.30;;;27.20;59.00;;;;;;5015893;28;20071;-74
2023/09/15 11:41:52;;;;;;;4.47;1.60;;;27.00;58.00;;;;;;5015590;28;20045;-74
2023/09/15 11:44:18;;;;;;;5.45;1.70;;;26.80;58.30;;;;;;5015646;28;20100;-73
2023/09/15 11:46:44;;;;;;;9.75;1.98;;;26.80;58.90;;;;;;5015675;28;20072;-74
2023/09/15 11:49:10;;;;;;;5.65;2.22;;;26.90;59.60;;;;;;5015529;28;20041;-74
2023/09/15 11:51:37;;;;;;;7.72;1.92;;;27.00;59.10;;;;;;5015606;28;20037;-74
2023/09/15 11:54:04;;;;;;;5.57;1.77;;;27.00;60.10;;;;;;5015591;28;20033;-74
2023/09/15 11:56:31;;;;;;;4.70;2.10;;;27.00;59.00;;;;;;5015420;28;20034;-74
2023/09/15 11:58:57;;;;;;;5.68;1.92;;;27.00;58.50;;;;;;4999141;28;20037;-74
2023/09/15 12:01:23;;;;;;;3.58;1.50;;;27.10;59.00;;;;;;5015404;28;20080;-73
2023/09/15 12:03:49;;;;;;;5.88;2.15;;;27.30;60.30;;;;;;5015389;28;20069;-73
2023/09/15 12:06:19;;;;;;;6.00;1.92;;;27.40;59.50;;;;;;5015396;28;20033;-73
2023/09/15 12:08:49;;;;;;;3.83;1.80;;;27.70;60.20;;;;;;5015298;28;20520;-73
2023/09/15 12:11:16;;;;;;;5.72;1.88;;;27.80;58.90;;;;;;5015283;28;20041;-74
2023/09/15 12:13:42;;;;;;;5.07;1.92;;;27.90;58.20;;;;;;5015339;28;20038;-74
2023/09/15 12:16:24;;;;;;;4.78;1.90;;;28.10;56.50;;;;;;5015584;28;20055;-73
2023/09/15 12:18:51;;;;;;;;;;;28.20;56.10;;;;;;5015905;28;20067;-74
2023/09/15 12:21:16;;;;;;;5.35;1.70;;;28.20;55.60;;;;;;5015239;28;19927;-74
2023/09/15 12:23:43;;;;;;;5.30;1.95;;;28.20;57.80;;;;;;5015232;28;20037;-74
2023/09/15 12:26:10;;;;;;;4.47;1.63;;;28.20;56.60;;;;;;5015185;28;20128;-74
2023/09/15 12:28:35;;;;;;;5.13;2.08;;;28.10;56.60;;;;;;5015133;28;20068;-74
2023/09/15 12:31:01;;;;;;;6.32;1.73;;;28.20;57.80;;;;;;5015185;28;20033;-74
2023/09/15 12:33:29;;;;;;;7.13;1.98;;;28.20;56.60;;;;;;5014977;28;20040;-74
2023/09/15 12:35:56;;;;;;;4.50;1.92;;;28.10;55.90;;;;;;5015439;28;20091;-74
2023/09/15 12:38:22;;;;;;;6.22;2.40;;;28.10;57.40;;;;;;5015127;28;20147;-73
2023/09/15 12:40:49;;;;;;;4.45;1.90;;;28.00;56.50;;;;;;4998610;28;20116;-74
2023/09/15 12:43:15;;;;;;;4.22;1.73;;;28.00;56.80;;;;;;5014913;28;20048;-74